Flight Track Log - Related Links

Times and Time Zones

All times are in EDT time to prevent confusion due to time zone crossing. See the SWA3924 flight status page for this flight to view local times or setup timezone preferences in your user account.

Time Position Orientation Groundspeed Altitude Reporting Facility
EDT Latitude Longitude Course Direction KTS MPH feet Rate Location/Type
Wed 09:14:19 PM 33.9333 -118.5667 256° West 276 318 4,600  Level Southern California TRACON
Wed 09:15:35 PM 33.9697 -118.6728 292° West 309 356 8,500 1,913 Climbing Los Angeles Center
Wed 09:16:37 PM 34.0519 -118.7000 345° North 306 352 9,000 242 Climbing Los Angeles Center
Wed 09:17:39 PM 34.1064 -118.6581 33° Northeast 277 319 9,000 2,081 Level Los Angeles Center
Wed 09:18:00 PM 34.1596 -118.6202 22° Northeast  Level FlightAware Approximate
Wed 09:18:41 PM 34.2042 -118.6617 358° North 297 342 13,300  Level Los Angeles Center
Wed 09:19:42 PM 34.2931 -118.6786 351° North 317 365 16,000 2,878 Climbing Los Angeles Center
Wed 09:20:44 PM 34.3839 -118.6964 351° North 327 376 19,200 2,903 Climbing Los Angeles Center
Wed 09:21:46 PM 34.4803 -118.7153 351° North 348 400 22,000 2,903 Climbing Los Angeles Center
Wed 09:22:48 PM 34.5739 -118.7475 344° North 350 403 25,200 1,854 Climbing Los Angeles Center
Wed 09:23:49 PM 34.6733 -118.7983 337° Northwest 390 449 25,800 1,073 Climbing Los Angeles Center
Wed 09:24:51 PM 34.7864 -118.8550 338° Northwest 438 504 27,400 1,742 Climbing Los Angeles Center
Wed 09:25:53 PM 34.8983 -118.9525 324° Northwest 467 537 29,400 2,049 Climbing Los Angeles Center
Wed 09:26:54 PM 35.0000 -119.0528 321° Northwest 469 540 31,600 2,244 Climbing Los Angeles Center
Wed 09:27:56 PM 35.1194 -119.1692 321° Northwest 461 531 34,000 923 Climbing Los Angeles Center
Wed 09:29:30 PM 35.2556 -119.3050 321° Northwest 458 527 34,000  Level Oakland Center
Wed 09:30:00 PM 35.3186 -119.3647 322° Northwest 458 527 34,000  Level Los Angeles Center
Wed 09:31:01 PM 35.4178 -119.4636 321° Northwest 461 531 34,000  Level Los Angeles Center
Wed 09:31:32 PM 35.4728 -119.5200 320° Northwest 459 528 34,000  Level Oakland Center
Wed 09:32:33 PM 35.5703 -119.6153 322° Northwest 453 521 34,000  Level Oakland Center
Wed 09:33:35 PM 35.6658 -119.7097 321° Northwest 447 514 34,000  Level Oakland Center
Wed 09:34:36 PM 35.7600 -119.8036 321° Northwest 441 507 34,000  Level Oakland Center
Wed 09:35:37 PM 35.8528 -119.8981 320° Northwest 438 504 34,000  Level Oakland Center
Wed 09:36:38 PM 35.9464 -119.9911 321° Northwest 435 501 34,000  Level Oakland Center
Wed 09:37:39 PM 36.0392 -120.0822 322° Northwest 431 496 34,000  Level Oakland Center
Wed 09:38:40 PM 36.1481 -120.1939 320° Northwest 427 491 34,000  Level Oakland Center
Wed 09:39:42 PM 36.2397 -120.2894 320° Northwest 431 496 34,000  Level Oakland Center
Wed 09:40:43 PM 36.3322 -120.3833 321° Northwest 430 495 34,000 -344 Level Oakland Center
Wed 09:41:44 PM 36.4244 -120.4778 321° Northwest 431 496 33,300 -1,721 Descending Oakland Center
Wed 09:42:45 PM 36.5164 -120.5700 321° Northwest 428 493 30,500 -2,508 Descending Oakland Center
Wed 09:43:46 PM 36.6044 -120.6653 319° Northwest 418 481 28,200 -2,213 Descending Oakland Center
Wed 09:44:47 PM 36.6900 -120.7547 320° Northwest 403 464 26,000 -2,115 Descending Oakland Center
Wed 09:45:48 PM 36.7722 -120.8397 320° Northwest 386 444 23,900 -2,098 Descending Oakland Center
Wed 09:46:50 PM 36.8519 -120.9281 318° Northwest 374 430 21,700 -2,049 Descending Oakland Center
Wed 09:47:51 PM 36.9258 -121.0158 316° Northwest 366 421 19,700 -2,016 Descending Oakland Center
Wed 09:48:52 PM 37.0006 -121.1022 317° Northwest 365 420 17,600 -2,115 Descending Oakland Center
Wed 09:49:53 PM 37.0764 -121.1908 317° Northwest 351 404 15,400 -2,164 Descending Oakland Center
Wed 09:50:54 PM 37.1558 -121.2836 317° Northwest 344 396 13,200 -2,066 Descending Oakland Center
Wed 09:51:55 PM 37.2244 -121.3631 317° Northwest 336 387 11,200 -1,463 Descending Oakland Center
Wed 09:52:57 PM 37.2903 -121.4397 317° Northwest 324 373 10,200 -1,220 Descending Oakland Center
Wed 09:53:58 PM 37.3542 -121.5125 318° Northwest 300 345 8,700 -1,350 Descending Oakland Center
Wed 09:54:57 PM 37.4167 -121.5833 318° Northwest 285 328 7,500 -857 Descending Northern Cal TRACON
Wed 09:55:57 PM 37.4667 -121.6500 313° West 274 315 7,000 -250 Descending Northern Cal TRACON
Wed 09:56:57 PM 37.5000 -121.7333 297° West 279 321 7,000 -150 Level Northern Cal TRACON
Wed 09:57:57 PM 37.5333 -121.8167 297° West 278 320 6,700 -700 Descending Northern Cal TRACON
Wed 09:58:57 PM 37.5667 -121.9167 293° West 262 302 5,600 -1,150 Descending Northern Cal TRACON
Wed 09:59:57 PM 37.5833 -121.9833 288° West 236 272 4,400 -800 Descending Northern Cal TRACON
Wed 10:00:57 PM 37.6000 -122.0500 288° West 187 215 4,000 -900 Descending Northern Cal TRACON
Wed 10:01:57 PM 37.6333 -122.1000 310° West 171 197 2,600 -1,250 Descending Northern Cal TRACON
Wed 10:02:57 PM 37.6500 -122.1500 293° West 147 169 1,500 -905 Descending Northern Cal TRACON
Wed 10:04:03 PM 37.6833 -122.1833 322° Northwest 135 155 700 8,346 Descending Northern Cal TRACON
Wed 10:05:10 PM 37.7053 -122.2214 306° West 136 157 20,000 17,284 Climbing Oakland Center
Wed 10:07:00 PM 37.7167 -122.2167 270° West  Level FlightAware Approximate

Login

Don't have an account? Register now (free) for customized features, flight alerts, and more!